sensor_id;sensor_type;location;lat;lon;timestamp;pressure;altitude;pressure_sealevel;temperature;humidity
9059;BME280;4564;42.034;25.834;2022-09-09T00:00:36;100417.81;;;19.24;68.21
9059;BME280;4564;42.034;25.834;2022-09-09T00:03:06;100412.81;;;19.21;68.34
9059;BME280;4564;42.034;25.834;2022-09-09T00:05:41;100408.50;;;19.13;69.27
9059;BME280;4564;42.034;25.834;2022-09-09T00:08:12;100400.63;;;19.05;69.52
9059;BME280;4564;42.034;25.834;2022-09-09T00:10:42;100406.81;;;19.12;69.50
9059;BME280;4564;42.034;25.834;2022-09-09T00:13:13;100398.22;;;19.09;70.13
9059;BME280;4564;42.034;25.834;2022-09-09T00:15:44;100405.75;;;19.02;70.34
9059;BME280;4564;42.034;25.834;2022-09-09T00:18:14;100413.44;;;19.00;70.38
9059;BME280;4564;42.034;25.834;2022-09-09T00:20:45;100415.06;;;19.01;70.85
9059;BME280;4564;42.034;25.834;2022-09-09T00:23:17;100417.81;;;19.12;70.40
9059;BME280;4564;42.034;25.834;2022-09-09T00:25:46;100428.59;;;19.25;70.10
9059;BME280;4564;42.034;25.834;2022-09-09T00:28:18;100433.88;;;19.15;70.32
9059;BME280;4564;42.034;25.834;2022-09-09T00:30:44;100452.28;;;19.03;71.14
9059;BME280;4564;42.034;25.834;2022-09-09T00:33:14;100447.38;;;18.94;70.91
9059;BME280;4564;42.034;25.834;2022-09-09T00:35:46;100453.94;;;18.81;71.35
9059;BME280;4564;42.034;25.834;2022-09-09T00:38:14;100453.69;;;18.71;71.67
9059;BME280;4564;42.034;25.834;2022-09-09T00:40:41;100453.47;;;18.72;72.06
9059;BME280;4564;42.034;25.834;2022-09-09T00:43:18;100442.00;;;18.87;71.83
9059;BME280;4564;42.034;25.834;2022-09-09T00:45:57;100436.25;;;18.89;71.56
9059;BME280;4564;42.034;25.834;2022-09-09T00:48:27;100439.94;;;19.06;70.94
9059;BME280;4564;42.034;25.834;2022-09-09T00:51:00;100440.66;;;19.01;70.96
9059;BME280;4564;42.034;25.834;2022-09-09T00:53:33;100434.22;;;18.96;71.19
9059;BME280;4564;42.034;25.834;2022-09-09T00:56:06;100425.84;;;18.91;71.15
9059;BME280;4564;42.034;25.834;2022-09-09T00:58:34;100422.84;;;18.80;71.35
9059;BME280;4564;42.034;25.834;2022-09-09T01:01:02;100426.53;;;18.74;71.99
9059;BME280;4564;42.034;25.834;2022-09-09T01:03:33;100422.56;;;18.59;72.19
9059;BME280;4564;42.034;25.834;2022-09-09T01:06:02;100420.66;;;18.59;72.32
9059;BME280;4564;42.034;25.834;2022-09-09T01:11:20;100427.25;;;18.58;72.39
9059;BME280;4564;42.034;25.834;2022-09-09T01:13:47;100423.22;;;18.42;72.67
9059;BME280;4564;42.034;25.834;2022-09-09T01:16:18;100413.19;;;18.36;73.24
9059;BME280;4564;42.034;25.834;2022-09-09T01:18:45;100425.13;;;18.42;72.87
9059;BME280;4564;42.034;25.834;2022-09-09T01:21:16;100438.16;;;18.35;73.16
9059;BME280;4564;42.034;25.834;2022-09-09T01:23:51;100442.38;;;18.19;73.48
9059;BME280;4564;42.034;25.834;2022-09-09T01:26:26;100445.13;;;18.08;74.11
9059;BME280;4564;42.034;25.834;2022-09-09T01:28:53;100445.91;;;17.96;74.68
9059;BME280;4564;42.034;25.834;2022-09-09T01:31:20;100440.91;;;18.05;74.86
9059;BME280;4564;42.034;25.834;2022-09-09T01:33:48;100449.63;;;18.02;74.74
9059;BME280;4564;42.034;25.834;2022-09-09T01:36:16;100448.31;;;18.04;75.02
9059;BME280;4564;42.034;25.834;2022-09-09T01:38:44;100448.78;;;18.01;75.10
9059;BME280;4564;42.034;25.834;2022-09-09T01:41:11;100449.09;;;17.93;75.50
9059;BME280;4564;42.034;25.834;2022-09-09T01:43:39;100455.06;;;17.90;75.46
9059;BME280;4564;42.034;25.834;2022-09-09T01:46:05;100452.69;;;17.94;75.70
9059;BME280;4564;42.034;25.834;2022-09-09T01:48:32;100465.41;;;17.88;75.98
9059;BME280;4564;42.034;25.834;2022-09-09T01:50:59;100459.94;;;17.88;76.11
9059;BME280;4564;42.034;25.834;2022-09-09T01:53:25;100456.75;;;17.91;76.42
9059;BME280;4564;42.034;25.834;2022-09-09T01:55:55;100456.13;;;17.89;76.23
9059;BME280;4564;42.034;25.834;2022-09-09T01:58:28;100455.28;;;17.89;76.42
9059;BME280;4564;42.034;25.834;2022-09-09T02:01:00;100453.38;;;17.89;76.70
9059;BME280;4564;42.034;25.834;2022-09-09T02:03:28;100461.47;;;17.84;76.76
9059;BME280;4564;42.034;25.834;2022-09-09T02:05:56;100461.69;;;17.83;77.01
9059;BME280;4564;42.034;25.834;2022-09-09T02:08:26;100471.38;;;17.85;76.53
9059;BME280;4564;42.034;25.834;2022-09-09T02:10:56;100464.69;;;17.81;77.11
9059;BME280;4564;42.034;25.834;2022-09-09T02:13:24;100464.06;;;17.79;77.00
9059;BME280;4564;42.034;25.834;2022-09-09T02:15:52;100457.97;;;17.77;77.50
9059;BME280;4564;42.034;25.834;2022-09-09T02:18:22;100453.94;;;17.80;77.47
9059;BME280;4564;42.034;25.834;2022-09-09T02:20:51;100453.72;;;17.81;77.20
9059;BME280;4564;42.034;25.834;2022-09-09T02:23:19;100450.19;;;17.74;76.87
9059;BME280;4564;42.034;25.834;2022-09-09T02:25:45;100446.69;;;17.67;77.06
9059;BME280;4564;42.034;25.834;2022-09-09T02:28:13;100447.59;;;17.61;77.16
9059;BME280;4564;42.034;25.834;2022-09-09T02:30:41;100446.84;;;17.54;77.75
9059;BME280;4564;42.034;25.834;2022-09-09T02:33:11;100444.38;;;17.46;77.87
9059;BME280;4564;42.034;25.834;2022-09-09T02:35:40;100441.84;;;17.44;78.23
9059;BME280;4564;42.034;25.834;2022-09-09T02:38:09;100451.00;;;17.38;78.63
9059;BME280;4564;42.034;25.834;2022-09-09T02:40:37;100445.97;;;17.35;78.84
9059;BME280;4564;42.034;25.834;2022-09-09T02:43:03;100441.59;;;17.28;79.28
9059;BME280;4564;42.034;25.834;2022-09-09T02:45:32;100435.59;;;17.19;80.13
9059;BME280;4564;42.034;25.834;2022-09-09T02:48:03;100445.66;;;17.25;80.89
9059;BME280;4564;42.034;25.834;2022-09-09T02:50:33;100425.75;;;17.11;81.20
9059;BME280;4564;42.034;25.834;2022-09-09T02:53:05;100436.56;;;17.06;81.37
9059;BME280;4564;42.034;25.834;2022-09-09T02:55:37;100432.28;;;16.92;82.21
9059;BME280;4564;42.034;25.834;2022-09-09T02:58:05;100435.66;;;16.94;82.31
9059;BME280;4564;42.034;25.834;2022-09-09T03:00:33;100424.69;;;16.94;82.14
9059;BME280;4564;42.034;25.834;2022-09-09T03:03:01;100427.00;;;16.91;81.85
9059;BME280;4564;42.034;25.834;2022-09-09T03:05:28;100425.41;;;16.83;82.18
9059;BME280;4564;42.034;25.834;2022-09-09T03:07:54;100429.59;;;16.86;82.69
9059;BME280;4564;42.034;25.834;2022-09-09T03:10:23;100417.19;;;16.83;82.19
9059;BME280;4564;42.034;25.834;2022-09-09T03:12:50;100419.09;;;16.83;82.45
9059;BME280;4564;42.034;25.834;2022-09-09T03:15:16;100419.69;;;16.85;82.86
9059;BME280;4564;42.034;25.834;2022-09-09T03:17:43;100416.34;;;16.83;82.94
9059;BME280;4564;42.034;25.834;2022-09-09T03:20:10;100411.47;;;16.85;83.66
9059;BME280;4564;42.034;25.834;2022-09-09T03:22:37;100420.19;;;16.75;84.03
9059;BME280;4564;42.034;25.834;2022-09-09T03:25:04;100409.66;;;16.78;84.13
9059;BME280;4564;42.034;25.834;2022-09-09T03:27:32;100408.41;;;16.74;84.04
9059;BME280;4564;42.034;25.834;2022-09-09T03:29:59;100406.97;;;16.72;84.12
9059;BME280;4564;42.034;25.834;2022-09-09T03:32:29;100406.00;;;16.60;84.32
9059;BME280;4564;42.034;25.834;2022-09-09T03:34:56;100412.72;;;16.57;84.63
9059;BME280;4564;42.034;25.834;2022-09-09T03:37:23;100419.50;;;16.61;84.92
9059;BME280;4564;42.034;25.834;2022-09-09T03:39:49;100418.44;;;16.62;84.63
9059;BME280;4564;42.034;25.834;2022-09-09T03:42:16;100407.38;;;16.69;84.00
9059;BME280;4564;42.034;25.834;2022-09-09T03:44:45;100419.81;;;16.71;83.88
9059;BME280;4564;42.034;25.834;2022-09-09T03:47:15;100412.72;;;16.64;84.40
9059;BME280;4564;42.034;25.834;2022-09-09T03:49:42;100413.97;;;16.68;83.95
9059;BME280;4564;42.034;25.834;2022-09-09T03:52:09;100424.94;;;16.68;83.81
9059;BME280;4564;42.034;25.834;2022-09-09T03:54:35;100417.50;;;16.68;83.97
9059;BME280;4564;42.034;25.834;2022-09-09T03:57:02;100405.91;;;16.73;83.42
9059;BME280;4564;42.034;25.834;2022-09-09T03:59:29;100404.97;;;16.79;83.15
9059;BME280;4564;42.034;25.834;2022-09-09T04:01:57;100406.97;;;16.72;83.14
9059;BME280;4564;42.034;25.834;2022-09-09T04:04:24;100405.44;;;16.76;82.71
9059;BME280;4564;42.034;25.834;2022-09-09T04:06:51;100417.69;;;16.73;83.22
9059;BME280;4564;42.034;25.834;2022-09-09T04:09:17;100412.97;;;16.81;82.88
9059;BME280;4564;42.034;25.834;2022-09-09T04:11:44;100420.53;;;16.85;82.71
9059;BME280;4564;42.034;25.834;2022-09-09T04:14:11;100429.38;;;16.87;82.79
9059;BME280;4564;42.034;25.834;2022-09-09T04:16:38;100431.44;;;16.92;81.92
9059;BME280;4564;42.034;25.834;2022-09-09T04:19:06;100435.81;;;16.99;81.86
9059;BME280;4564;42.034;25.834;2022-09-09T04:21:32;100444.78;;;17.06;81.49
9059;BME280;4564;42.034;25.834;2022-09-09T04:23:59;100455.84;;;17.18;81.69
9059;BME280;4564;42.034;25.834;2022-09-09T04:26:26;100462.19;;;17.18;80.53
9059;BME280;4564;42.034;25.834;2022-09-09T04:28:52;100454.84;;;17.12;80.16
9059;BME280;4564;42.034;25.834;2022-09-09T04:31:19;100469.34;;;17.19;79.56
9059;BME280;4564;42.034;25.834;2022-09-09T04:33:48;100471.19;;;17.26;79.75
9059;BME280;4564;42.034;25.834;2022-09-09T04:36:16;100469.81;;;17.35;79.10
9059;BME280;4564;42.034;25.834;2022-09-09T04:38:44;100476.31;;;17.40;79.10
9059;BME280;4564;42.034;25.834;2022-09-09T04:41:11;100473.94;;;17.44;79.21
9059;BME280;4564;42.034;25.834;2022-09-09T04:43:38;100467.09;;;17.53;78.64
9059;BME280;4564;42.034;25.834;2022-09-09T04:46:05;100466.81;;;17.61;78.79
9059;BME280;4564;42.034;25.834;2022-09-09T04:48:32;100470.69;;;17.72;78.68
9059;BME280;4564;42.034;25.834;2022-09-09T04:50:59;100473.06;;;17.86;78.75
9059;BME280;4564;42.034;25.834;2022-09-09T04:53:28;100472.25;;;18.16;77.43
9059;BME280;4564;42.034;25.834;2022-09-09T04:56:00;100479.13;;;18.36;76.52
9059;BME280;4564;42.034;25.834;2022-09-09T04:58:27;100481.34;;;18.46;76.07
9059;BME280;4564;42.034;25.834;2022-09-09T05:00:54;100477.47;;;18.65;76.64
9059;BME280;4564;42.034;25.834;2022-09-09T05:03:21;100477.63;;;19.40;74.19
9059;BME280;4564;42.034;25.834;2022-09-09T05:05:47;100484.78;;;20.56;70.45
9059;BME280;4564;42.034;25.834;2022-09-09T05:08:14;100484.72;;;21.73;65.08
9059;BME280;4564;42.034;25.834;2022-09-09T05:10:42;100485.06;;;22.47;61.90
9059;BME280;4564;42.034;25.834;2022-09-09T05:13:09;100477.84;;;23.73;58.11
9059;BME280;4564;42.034;25.834;2022-09-09T05:15:36;100477.06;;;25.16;53.00
9059;BME280;4564;42.034;25.834;2022-09-09T05:18:03;100472.03;;;26.33;49.25
9059;BME280;4564;42.034;25.834;2022-09-09T05:20:29;100469.81;;;27.42;45.77
9059;BME280;4564;42.034;25.834;2022-09-09T05:22:57;100475.13;;;28.15;43.57
9059;BME280;4564;42.034;25.834;2022-09-09T05:25:23;100482.25;;;28.63;41.88
9059;BME280;4564;42.034;25.834;2022-09-09T05:27:52;100493.06;;;29.40;39.79
9059;BME280;4564;42.034;25.834;2022-09-09T05:30:20;100494.38;;;30.02;38.87
9059;BME280;4564;42.034;25.834;2022-09-09T05:32:47;100483.81;;;30.62;37.12
9059;BME280;4564;42.034;25.834;2022-09-09T05:35:14;100496.47;;;30.96;36.28
9059;BME280;4564;42.034;25.834;2022-09-09T05:37:41;100490.56;;;31.42;35.65
9059;BME280;4564;42.034;25.834;2022-09-09T05:40:08;100495.91;;;31.52;35.54
9059;BME280;4564;42.034;25.834;2022-09-09T05:42:36;100491.13;;;31.83;34.80
9059;BME280;4564;42.034;25.834;2022-09-09T05:45:06;100482.41;;;31.93;34.77
9059;BME280;4564;42.034;25.834;2022-09-09T05:47:32;100476.91;;;32.36;34.38
9059;BME280;4564;42.034;25.834;2022-09-09T05:49:59;100486.22;;;32.54;33.74
9059;BME280;4564;42.034;25.834;2022-09-09T05:52:26;100471.50;;;32.92;33.41
9059;BME280;4564;42.034;25.834;2022-09-09T05:54:52;100475.88;;;32.24;34.09
9059;BME280;4564;42.034;25.834;2022-09-09T05:57:20;100474.63;;;32.38;34.43
9059;BME280;4564;42.034;25.834;2022-09-09T05:59:46;100479.44;;;32.72;33.58
9059;BME280;4564;42.034;25.834;2022-09-09T06:02:14;100488.53;;;33.12;32.93
9059;BME280;4564;42.034;25.834;2022-09-09T06:04:41;100488.16;;;33.48;32.66
9059;BME280;4564;42.034;25.834;2022-09-09T06:07:08;100480.75;;;33.82;31.96
9059;BME280;4564;42.034;25.834;2022-09-09T06:09:34;100480.53;;;33.49;32.13
9059;BME280;4564;42.034;25.834;2022-09-09T06:12:01;100486.53;;;33.39;32.65
9059;BME280;4564;42.034;25.834;2022-09-09T06:14:28;100490.91;;;33.65;32.35
9059;BME280;4564;42.034;25.834;2022-09-09T06:16:55;100492.34;;;34.27;31.28
9059;BME280;4564;42.034;25.834;2022-09-09T06:19:23;100492.13;;;34.32;30.84
9059;BME280;4564;42.034;25.834;2022-09-09T06:21:52;100494.91;;;33.73;32.14
9059;BME280;4564;42.034;25.834;2022-09-09T06:24:18;100484.50;;;34.32;31.21
9059;BME280;4564;42.034;25.834;2022-09-09T06:26:45;100489.25;;;34.61;31.28
9059;BME280;4564;42.034;25.834;2022-09-09T06:29:11;100493.53;;;34.46;30.90
9059;BME280;4564;42.034;25.834;2022-09-09T06:31:38;100498.25;;;33.49;32.42
9059;BME280;4564;42.034;25.834;2022-09-09T06:34:06;100501.22;;;33.53;32.46
9059;BME280;4564;42.034;25.834;2022-09-09T06:36:35;100500.09;;;33.45;33.07
9059;BME280;4564;42.034;25.834;2022-09-09T06:39:03;100496.28;;;33.33;33.33
9059;BME280;4564;42.034;25.834;2022-09-09T06:41:30;100502.72;;;33.50;32.76
9059;BME280;4564;42.034;25.834;2022-09-09T06:43:58;100501.94;;;33.88;33.49
9059;BME280;4564;42.034;25.834;2022-09-09T06:46:25;100501.97;;;34.46;31.55
9059;BME280;4564;42.034;25.834;2022-09-09T06:48:53;100501.69;;;34.10;32.13
9059;BME280;4564;42.034;25.834;2022-09-09T06:51:21;100496.75;;;33.52;33.37
9059;BME280;4564;42.034;25.834;2022-09-09T06:53:51;100491.03;;;33.14;33.75
9059;BME280;4564;42.034;25.834;2022-09-09T06:56:18;100483.72;;;33.04;34.44
9059;BME280;4564;42.034;25.834;2022-09-09T06:58:47;100487.72;;;33.29;34.48
9059;BME280;4564;42.034;25.834;2022-09-09T07:01:14;100488.53;;;33.29;33.35
9059;BME280;4564;42.034;25.834;2022-09-09T07:03:41;100486.94;;;33.66;33.09
9059;BME280;4564;42.034;25.834;2022-09-09T07:06:09;100472.19;;;34.37;31.42
9059;BME280;4564;42.034;25.834;2022-09-09T07:08:40;100468.69;;;34.40;31.38
9059;BME280;4564;42.034;25.834;2022-09-09T07:11:08;100483.44;;;35.41;29.89
9059;BME280;4564;42.034;25.834;2022-09-09T07:13:36;100475.78;;;34.87;31.10
9059;BME280;4564;42.034;25.834;2022-09-09T07:16:03;100479.84;;;34.99;29.89
9059;BME280;4564;42.034;25.834;2022-09-09T07:18:30;100485.88;;;34.18;30.87
9059;BME280;4564;42.034;25.834;2022-09-09T07:20:56;100485.34;;;34.33;31.01
9059;BME280;4564;42.034;25.834;2022-09-09T07:23:23;100484.88;;;34.93;30.53
9059;BME280;4564;42.034;25.834;2022-09-09T07:25:50;100482.81;;;35.68;29.45
9059;BME280;4564;42.034;25.834;2022-09-09T07:28:19;100479.66;;;34.83;30.47
9059;BME280;4564;42.034;25.834;2022-09-09T07:30:52;100476.19;;;34.57;29.55
9059;BME280;4564;42.034;25.834;2022-09-09T07:33:19;100477.44;;;34.47;31.04
9059;BME280;4564;42.034;25.834;2022-09-09T07:35:46;100472.00;;;34.63;31.17
9059;BME280;4564;42.034;25.834;2022-09-09T07:38:13;100464.66;;;34.49;29.95
9059;BME280;4564;42.034;25.834;2022-09-09T07:40:40;100465.91;;;34.02;29.69
9059;BME280;4564;42.034;25.834;2022-09-09T07:43:06;100460.44;;;34.05;30.58
9059;BME280;4564;42.034;25.834;2022-09-09T07:45:35;100453.38;;;34.91;29.66
9059;BME280;4564;42.034;25.834;2022-09-09T07:48:02;100458.22;;;34.70;29.20
9059;BME280;4564;42.034;25.834;2022-09-09T07:50:28;100468.97;;;34.68;30.55
9059;BME280;4564;42.034;25.834;2022-09-09T07:52:55;100462.25;;;34.60;29.45
9059;BME280;4564;42.034;25.834;2022-09-09T07:55:22;100451.66;;;33.60;28.54
9059;BME280;4564;42.034;25.834;2022-09-09T07:57:52;100465.56;;;32.84;29.21
9059;BME280;4564;42.034;25.834;2022-09-09T08:00:18;100464.53;;;32.46;29.39
9059;BME280;4564;42.034;25.834;2022-09-09T08:02:48;100470.38;;;31.62;31.01
9059;BME280;4564;42.034;25.834;2022-09-09T08:05:15;100471.41;;;31.44;30.32
9059;BME280;4564;42.034;25.834;2022-09-09T08:07:43;100472.25;;;31.00;30.81
9059;BME280;4564;42.034;25.834;2022-09-09T08:10:11;100462.19;;;30.76;31.80
9059;BME280;4564;42.034;25.834;2022-09-09T08:12:40;100458.56;;;30.76;31.88
9059;BME280;4564;42.034;25.834;2022-09-09T08:15:06;100455.91;;;30.93;29.34
9059;BME280;4564;42.034;25.834;2022-09-09T08:17:33;100447.22;;;30.81;30.88
9059;BME280;4564;42.034;25.834;2022-09-09T08:20:01;100453.06;;;30.49;29.58
9059;BME280;4564;42.034;25.834;2022-09-09T08:22:31;100448.50;;;30.39;30.31
9059;BME280;4564;42.034;25.834;2022-09-09T08:24:57;100439.94;;;30.58;30.63
9059;BME280;4564;42.034;25.834;2022-09-09T08:27:24;100442.09;;;30.83;31.33
9059;BME280;4564;42.034;25.834;2022-09-09T08:29:51;100438.75;;;30.95;31.77
9059;BME280;4564;42.034;25.834;2022-09-09T08:32:18;100433.97;;;31.17;31.83
9059;BME280;4564;42.034;25.834;2022-09-09T08:34:45;100431.81;;;31.14;31.63
9059;BME280;4564;42.034;25.834;2022-09-09T08:37:15;100427.53;;;31.17;31.78
9059;BME280;4564;42.034;25.834;2022-09-09T08:39:42;100425.16;;;30.88;31.91
9059;BME280;4564;42.034;25.834;2022-09-09T08:42:21;100429.63;;;30.89;32.03
9059;BME280;4564;42.034;25.834;2022-09-09T08:45:01;100415.75;;;30.84;33.00
9059;BME280;4564;42.034;25.834;2022-09-09T08:47:33;100414.59;;;30.85;31.97
9059;BME280;4564;42.034;25.834;2022-09-09T08:52:53;100407.53;;;30.29;32.75
9059;BME280;4564;42.034;25.834;2022-09-09T08:55:24;100405.25;;;30.31;32.29
9059;BME280;4564;42.034;25.834;2022-09-09T08:57:52;100404.59;;;29.57;33.48
9059;BME280;4564;42.034;25.834;2022-09-09T09:00:20;100404.44;;;29.21;34.47
9059;BME280;4564;42.034;25.834;2022-09-09T09:02:48;100393.66;;;29.29;35.09
9059;BME280;4564;42.034;25.834;2022-09-09T09:05:22;100391.00;;;29.65;34.12
9059;BME280;4564;42.034;25.834;2022-09-09T09:07:55;100382.41;;;29.61;34.59
9059;BME280;4564;42.034;25.834;2022-09-09T09:10:30;100381.16;;;29.81;35.12
9059;BME280;4564;42.034;25.834;2022-09-09T09:13:01;100365.94;;;29.73;34.67
9059;BME280;4564;42.034;25.834;2022-09-09T09:15:30;100366.16;;;29.49;35.21
9059;BME280;4564;42.034;25.834;2022-09-09T09:17:58;100368.19;;;29.30;35.67
9059;BME280;4564;42.034;25.834;2022-09-09T09:20:26;100365.94;;;29.32;35.85
9059;BME280;4564;42.034;25.834;2022-09-09T09:23:00;100359.00;;;29.43;36.43
9059;BME280;4564;42.034;25.834;2022-09-09T09:25:31;100360.88;;;29.48;35.34
9059;BME280;4564;42.034;25.834;2022-09-09T09:27:58;100356.63;;;29.37;36.20
9059;BME280;4564;42.034;25.834;2022-09-09T09:30:26;100362.19;;;29.23;36.55
9059;BME280;4564;42.034;25.834;2022-09-09T09:32:57;100356.78;;;29.13;36.61
9059;BME280;4564;42.034;25.834;2022-09-09T09:35:24;100355.34;;;29.29;37.72
9059;BME280;4564;42.034;25.834;2022-09-09T09:37:51;100350.22;;;29.36;36.86
9059;BME280;4564;42.034;25.834;2022-09-09T09:40:20;100339.41;;;29.43;37.29
9059;BME280;4564;42.034;25.834;2022-09-09T09:42:53;100340.25;;;29.44;36.51
9059;BME280;4564;42.034;25.834;2022-09-09T09:45:25;100338.81;;;29.46;36.95
9059;BME280;4564;42.034;25.834;2022-09-09T09:48:00;100338.81;;;29.46;37.17
9059;BME280;4564;42.034;25.834;2022-09-09T09:50:27;100337.53;;;29.11;37.31
9059;BME280;4564;42.034;25.834;2022-09-09T09:52:54;100329.03;;;29.03;38.27
9059;BME280;4564;42.034;25.834;2022-09-09T09:55:24;100327.41;;;29.29;37.74
9059;BME280;4564;42.034;25.834;2022-09-09T09:57:51;100328.22;;;29.43;37.94
9059;BME280;4564;42.034;25.834;2022-09-09T10:00:19;100326.88;;;29.54;37.02
9059;BME280;4564;42.034;25.834;2022-09-09T10:02:46;100329.28;;;29.47;37.20
9059;BME280;4564;42.034;25.834;2022-09-09T10:05:14;100323.28;;;29.40;37.27
9059;BME280;4564;42.034;25.834;2022-09-09T10:07:41;100324.31;;;29.44;37.18
9059;BME280;4564;42.034;25.834;2022-09-09T10:10:12;100321.81;;;29.43;37.53
9059;BME280;4564;42.034;25.834;2022-09-09T10:12:43;100314.25;;;29.57;37.74
9059;BME280;4564;42.034;25.834;2022-09-09T10:15:17;100310.34;;;29.80;37.68
9059;BME280;4564;42.034;25.834;2022-09-09T10:17:54;100307.28;;;29.68;37.55
9059;BME280;4564;42.034;25.834;2022-09-09T10:20:28;100312.69;;;29.51;37.33
9059;BME280;4564;42.034;25.834;2022-09-09T10:23:01;100303.13;;;29.66;37.16
9059;BME280;4564;42.034;25.834;2022-09-09T10:25:35;100298.78;;;29.59;37.44
9059;BME280;4564;42.034;25.834;2022-09-09T10:30:54;100297.72;;;29.69;37.75
9059;BME280;4564;42.034;25.834;2022-09-09T10:33:24;100291.84;;;29.71;37.46
9059;BME280;4564;42.034;25.834;2022-09-09T10:35:57;100294.59;;;29.84;37.00
9059;BME280;4564;42.034;25.834;2022-09-09T10:38:28;100290.78;;;29.94;36.52
9059;BME280;4564;42.034;25.834;2022-09-09T10:43:52;100293.56;;;29.94;36.24
9059;BME280;4564;42.034;25.834;2022-09-09T10:46:26;100296.13;;;30.04;36.18
9059;BME280;4564;42.034;25.834;2022-09-09T10:49:01;100287.47;;;30.14;35.32
9059;BME280;4564;42.034;25.834;2022-09-09T10:51:33;100288.75;;;30.30;35.45
9059;BME280;4564;42.034;25.834;2022-09-09T10:56:49;100275.00;;;29.98;35.58
9059;BME280;4564;42.034;25.834;2022-09-09T10:59:23;100276.88;;;29.89;35.30
9059;BME280;4564;42.034;25.834;2022-09-09T11:01:53;100269.09;;;29.86;36.04
9059;BME280;4564;42.034;25.834;2022-09-09T11:04:22;100270.94;;;30.04;35.99
9059;BME280;4564;42.034;25.834;2022-09-09T11:06:52;100267.94;;;30.00;35.32
9059;BME280;4564;42.034;25.834;2022-09-09T11:09:22;100261.13;;;29.93;36.13
9059;BME280;4564;42.034;25.834;2022-09-09T11:11:51;100263.22;;;29.74;36.07
9059;BME280;4564;42.034;25.834;2022-09-09T11:14:19;100262.94;;;29.61;35.66
9059;BME280;4564;42.034;25.834;2022-09-09T11:16:49;100256.00;;;29.59;36.91
9059;BME280;4564;42.034;25.834;2022-09-09T11:19:19;100252.16;;;29.69;37.01
9059;BME280;4564;42.034;25.834;2022-09-09T11:21:48;100250.56;;;29.90;36.39
9059;BME280;4564;42.034;25.834;2022-09-09T11:24:18;100232.88;;;30.03;36.70
9059;BME280;4564;42.034;25.834;2022-09-09T11:26:49;100237.25;;;30.18;36.00
9059;BME280;4564;42.034;25.834;2022-09-09T11:29:32;100223.94;;;30.23;36.14
9059;BME280;4564;42.034;25.834;2022-09-09T11:32:08;100237.06;;;30.36;35.26
9059;BME280;4564;42.034;25.834;2022-09-09T11:34:43;100224.63;;;30.29;35.82
9059;BME280;4564;42.034;25.834;2022-09-09T11:37:17;100226.00;;;30.31;35.77
9059;BME280;4564;42.034;25.834;2022-09-09T11:42:32;100224.72;;;30.15;36.27
9059;BME280;4564;42.034;25.834;2022-09-09T11:45:08;100216.72;;;30.22;35.96
9059;BME280;4564;42.034;25.834;2022-09-09T11:47:35;100215.81;;;30.13;35.18
9059;BME280;4564;42.034;25.834;2022-09-09T11:52:50;100217.22;;;30.02;36.27
9059;BME280;4564;42.034;25.834;2022-09-09T11:55:24;100200.81;;;30.09;35.83
9059;BME280;4564;42.034;25.834;2022-09-09T11:57:56;100204.47;;;30.18;36.25
9059;BME280;4564;42.034;25.834;2022-09-09T12:00:33;100200.25;;;30.29;34.69
9059;BME280;4564;42.034;25.834;2022-09-09T12:03:00;100195.84;;;30.28;35.57
9059;BME280;4564;42.034;25.834;2022-09-09T12:05:35;100198.25;;;30.21;34.80
9059;BME280;4564;42.034;25.834;2022-09-09T12:08:04;100197.84;;;30.36;35.30
9059;BME280;4564;42.034;25.834;2022-09-09T12:10:31;100201.16;;;30.38;34.53
9059;BME280;4564;42.034;25.834;2022-09-09T12:13:07;100199.63;;;30.32;33.96
9059;BME280;4564;42.034;25.834;2022-09-09T12:15:34;100194.66;;;30.29;34.86
9059;BME280;4564;42.034;25.834;2022-09-09T12:18:01;100187.44;;;30.28;35.08
9059;BME280;4564;42.034;25.834;2022-09-09T12:20:31;100186.50;;;30.41;34.87
9059;BME280;4564;42.034;25.834;2022-09-09T12:23:03;100172.56;;;30.50;34.60
9059;BME280;4564;42.034;25.834;2022-09-09T12:25:39;100168.03;;;30.40;34.00
9059;BME280;4564;42.034;25.834;2022-09-09T12:28:11;100159.50;;;30.45;34.72
9059;BME280;4564;42.034;25.834;2022-09-09T12:30:55;100148.00;;;30.47;34.21
9059;BME280;4564;42.034;25.834;2022-09-09T12:33:25;100137.63;;;30.48;33.58
9059;BME280;4564;42.034;25.834;2022-09-09T12:36:00;100134.63;;;30.44;33.57
9059;BME280;4564;42.034;25.834;2022-09-09T12:38:29;100131.19;;;30.47;34.22
9059;BME280;4564;42.034;25.834;2022-09-09T12:40:59;100144.06;;;30.57;33.34
9059;BME280;4564;42.034;25.834;2022-09-09T12:43:27;100129.91;;;30.62;33.81
9059;BME280;4564;42.034;25.834;2022-09-09T12:45:55;100125.34;;;30.66;32.96
9059;BME280;4564;42.034;25.834;2022-09-09T12:48:26;100123.69;;;30.73;32.98
9059;BME280;4564;42.034;25.834;2022-09-09T12:50:54;100122.56;;;30.83;33.45
9059;BME280;4564;42.034;25.834;2022-09-09T12:53:23;100120.88;;;30.73;32.86
9059;BME280;4564;42.034;25.834;2022-09-09T12:55:52;100126.00;;;30.71;32.66
9059;BME280;4564;42.034;25.834;2022-09-09T12:58:20;100129.34;;;30.82;33.29
9059;BME280;4564;42.034;25.834;2022-09-09T13:00:50;100132.31;;;30.85;32.81
9059;BME280;4564;42.034;25.834;2022-09-09T13:03:19;100131.63;;;30.80;32.83
9059;BME280;4564;42.034;25.834;2022-09-09T13:05:46;100114.81;;;30.71;32.99
9059;BME280;4564;42.034;25.834;2022-09-09T13:08:13;100110.50;;;30.74;32.09
9059;BME280;4564;42.034;25.834;2022-09-09T13:10:41;100100.78;;;30.71;32.60
9059;BME280;4564;42.034;25.834;2022-09-09T13:13:13;100104.91;;;30.74;32.54
9059;BME280;4564;42.034;25.834;2022-09-09T13:15:47;100094.53;;;30.74;33.32
9059;BME280;4564;42.034;25.834;2022-09-09T13:18:15;100090.25;;;30.77;32.62
9059;BME280;4564;42.034;25.834;2022-09-09T13:20:45;100092.06;;;30.81;32.85
9059;BME280;4564;42.034;25.834;2022-09-09T13:23:12;100088.25;;;30.77;32.30
9059;BME280;4564;42.034;25.834;2022-09-09T13:25:39;100074.59;;;30.76;32.66
9059;BME280;4564;42.034;25.834;2022-09-09T13:28:18;100072.56;;;30.68;32.98